Flight Track Log - Related Links

Times and Time Zones

All times are in EDT time to prevent confusion due to time zone crossing. See the N754DJ flight status page for this flight to view local times or setup timezone preferences in your user account.

Time Position Orientation Groundspeed Altitude Reporting Facility
EDT Latitude Longitude Course Direction KTS MPH feet Rate Location/Type
Sun 02:34:48 PM 40.9267 -97.4633 67° East 147 169 4,500  Level Minneapolis Center
Sun 02:35:50 PM 40.9428 -97.4092 68° East 155 178 5,200 581 Climbing Minneapolis Center
Sun 02:36:52 PM 40.9600 -97.3569 66° East 157 181 5,700 581 Climbing Minneapolis Center
Sun 02:37:54 PM 40.9775 -97.3017 67° East 161 185 6,400 677 Climbing Minneapolis Center
Sun 02:38:56 PM 40.9958 -97.2483 65° Northeast 160 184 7,100 677 Climbing Minneapolis Center
Sun 02:39:58 PM 41.0103 -97.1942 71° East 157 181 7,800 720 Climbing Minneapolis Center
Sun 02:40:00 PM 40.9956 -97.3096 67° East  Level Estimated
Sun 02:41:01 PM 41.0308 -97.1308 67° East 156 180 8,600  Level Minneapolis Center
Sun 02:42:03 PM 41.0483 -97.0783 66° East 156 180 9,200 667 Climbing Minneapolis Center
Sun 02:42:49 PM 41.0469 -97.0339 92° East 158 182 9,800 677 Climbing Minneapolis Center
Sun 02:43:05 PM 41.0656 -97.0244 21° North 158 182 9,900 538 Climbing Minneapolis Center
Sun 02:44:07 PM 41.0822 -96.9708 68° East 158 182 10,500 609 Climbing Minneapolis Center
Sun 02:44:14 PM 41.0719 -96.9567 134° Southeast 161 185 10,600 484 Climbing Minneapolis Center
Sun 02:45:09 PM 41.0992 -96.9142 50° Northeast 162 186 11,000 492 Climbing Minneapolis Center
Sun 02:45:15 PM 41.0897 -96.9025 137° Southeast 167 192 11,100  Climbing Minneapolis Center
Sun 02:45:57 PM 41.1039 -96.8569 68° East 185 213 11,000  Descending Minneapolis Center
Sun 02:46:11 PM 41.1175 -96.8533 11° North 172 198 11,100 79 Climbing Minneapolis Center
Sun 02:47:13 PM 41.1422 -96.7761 67° East 186 214 11,100 -92 Level Minneapolis Center
Sun 02:47:16 PM 41.1322 -96.7711 159° South 189 217 11,000 -130 Descending Minneapolis Center
Sun 02:47:59 PM 41.1464 -96.7281 66° East 189 217 11,000 102 Level Minneapolis Center
Sun 02:48:15 PM 41.1619 -96.7125 37° Northeast 187 215 11,100  Climbing Minneapolis Center
Sun 02:48:59 PM 41.1678 -96.6650 81° East 188 216 11,000  Descending Minneapolis Center
Sun 02:49:17 PM 41.1819 -96.6481 42° Northeast 188 216 11,100  Climbing Minneapolis Center
Sun 02:50:18 PM 41.1942 -96.5819 76° East 187 215 11,000  Descending Minneapolis Center
Sun 02:50:19 PM 41.2014 -96.5847 344° North 186 214 11,100  Climbing Minneapolis Center
Sun 02:51:19 PM 41.2153 -96.5161 75° East 187 215 11,000  Descending Minneapolis Center
Sun 02:51:21 PM 41.2217 -96.5208 331° Northwest 187 215 11,100  Climbing Minneapolis Center
Sun 02:52:08 PM 41.2331 -96.4642 75° East 186 214 11,000  Descending Minneapolis Center
Sun 02:52:23 PM 41.2411 -96.4561 37° Northeast 188 216 11,100  Climbing Minneapolis Center
Sun 02:53:09 PM 41.2525 -96.4039 74° East 186 214 11,000  Descending Minneapolis Center
Sun 02:53:25 PM 41.2644 -96.3803 56° Northeast 186 214 11,100  Climbing Minneapolis Center
Sun 02:54:03 PM 41.2717 -96.3436 75° East 184 212 11,000  Descending Minneapolis Center
Sun 02:54:27 PM 41.2836 -96.3178 58° Northeast 183 211 11,100  Climbing Minneapolis Center
Sun 02:55:10 PM 41.2928 -96.2778 73° East 185 213 11,000  Descending Minneapolis Center
Sun 02:55:29 PM 41.3028 -96.2550 60° Northeast 184 212 11,100  Climbing Minneapolis Center
Sun 02:56:11 PM 41.3136 -96.2114 72° East 183 211 11,000  Descending Minneapolis Center
Sun 02:56:32 PM 41.3222 -96.1917 60° Northeast 184 212 11,100  Climbing Minneapolis Center
Sun 02:57:12 PM 41.3347 -96.1481 69° East 184 212 11,000  Descending Minneapolis Center
Sun 02:57:34 PM 41.3411 -96.1292 66° East 183 211 11,100  Climbing Minneapolis Center
Sun 02:58:13 PM 41.3536 -96.0850 69° East 184 212 11,000  Descending Minneapolis Center
Sun 02:58:36 PM 41.3603 -96.0667 64° Northeast 182 209 11,100  Climbing Minneapolis Center
Sun 02:59:19 PM 41.3744 -96.0186 69° East 184 212 11,000  Descending Minneapolis Center
Sun 02:59:38 PM 41.3811 -95.9975 67° East 185 213 11,100  Climbing Minneapolis Center
Sun 03:00:14 PM 41.3936 -95.9581 67° East 185 213 11,000  Descending Minneapolis Center
Sun 03:00:40 PM 41.4000 -95.9333 71° East 185 213 11,100  Climbing Minneapolis Center
Sun 03:01:21 PM 41.4142 -95.8919 65° Northeast 184 212 11,000  Descending Minneapolis Center
Sun 03:01:42 PM 41.4192 -95.8700 73° East 185 213 11,100  Climbing Minneapolis Center
Sun 03:02:22 PM 41.4369 -95.8225 63° Northeast 184 212 11,000 -97 Descending Minneapolis Center
Sun 03:02:44 PM 41.4417 -95.7950 77° East 183 211 11,000  Level Minneapolis Center
Sun 03:03:46 PM 41.4608 -95.7306 68° East 184 212 11,000  Level Minneapolis Center
Sun 03:04:48 PM 41.4794 -95.6681 68° East 183 211 11,000  Level Minneapolis Center
Sun 03:05:50 PM 41.4983 -95.6044 68° East 184 212 11,000  Level Minneapolis Center
Sun 03:06:52 PM 41.5169 -95.5414 68° East 183 211 11,000  Level Minneapolis Center
Sun 03:07:54 PM 41.5361 -95.4764 68° East 185 213 11,000  Level Minneapolis Center
Sun 03:08:57 PM 41.5583 -95.4014 68° East 184 212 11,000  Level Minneapolis Center
Sun 03:09:59 PM 41.5769 -95.3367 69° East 184 212 11,000  Level Minneapolis Center
Sun 03:11:01 PM 41.5964 -95.2719 68° East 186 214 11,000  Level Minneapolis Center
Sun 03:12:03 PM 41.6156 -95.2075 68° East 187 215 11,000  Level Minneapolis Center
Sun 03:13:05 PM 41.6350 -95.1428 68° East 187 215 11,000  Level Minneapolis Center
Sun 03:14:07 PM 41.6542 -95.0750 69° East 191 220 11,000  Level Minneapolis Center
Sun 03:15:09 PM 41.6753 -94.9964 70° East 189 217 11,000 48 Level Minneapolis Center
Sun 03:16:11 PM 41.6958 -94.9297 68° East 191 220 11,100 48 Climbing Minneapolis Center
Sun 03:17:13 PM 41.7156 -94.8639 68° East 191 220 11,100  Level Minneapolis Center
Sun 03:18:15 PM 41.7347 -94.7972 69° East 192 221 11,100  Level Minneapolis Center
Sun 03:19:17 PM 41.7547 -94.7300 68° East 193 222 11,100  Level Minneapolis Center
Sun 03:20:19 PM 41.7742 -94.6628 69° East 193 222 11,100 -48 Level Minneapolis Center
Sun 03:21:21 PM 41.7953 -94.5803 71° East 195 224 11,000 -48 Descending Minneapolis Center
Sun 03:22:24 PM 41.8150 -94.5131 68° East 194 223 11,000  Level Minneapolis Center
Sun 03:23:26 PM 41.8336 -94.4456 70° East 194 223 11,000  Level Minneapolis Center
Sun 03:24:28 PM 41.8531 -94.3778 69° East 194 223 11,000  Level Minneapolis Center
Sun 03:25:30 PM 41.8725 -94.3108 69° East 194 223 11,000  Level Minneapolis Center
Sun 03:26:32 PM 41.8922 -94.2431 69° East 195 224 11,000  Level Minneapolis Center
Sun 03:27:34 PM 41.9111 -94.1744 70° East 196 226 11,000  Level Minneapolis Center
Sun 03:28:36 PM 41.9339 -94.0936 69° East 195 224 11,000  Level Minneapolis Center
Sun 03:29:38 PM 41.9522 -94.0261 70° East 194 223 11,000  Level Minneapolis Center
Sun 03:30:40 PM 41.9711 -93.9569 70° East 196 226 11,000  Level Minneapolis Center
Sun 03:31:42 PM 41.9897 -93.8886 70° East 197 227 11,000  Level Minneapolis Center
Sun 03:32:44 PM 42.0117 -93.8142 68° East 197 227 11,000  Level Minneapolis Center
Sun 03:33:46 PM 42.0297 -93.7461 70° East 196 226 11,000  Level Minneapolis Center
Sun 03:34:48 PM 42.0483 -93.6775 70° East 196 226 11,000  Level Minneapolis Center
Sun 03:35:50 PM 42.0675 -93.6106 69° East 194 223 11,000  Level Minneapolis Center
Sun 03:36:53 PM 42.0897 -93.5278 70° East 197 227 11,000  Level Minneapolis Center
Sun 03:37:55 PM 42.1089 -93.4597 69° East 196 226 11,000  Level Minneapolis Center
Sun 03:38:57 PM 42.1275 -93.3911 70° East 197 227 11,000  Level Minneapolis Center
Sun 03:39:59 PM 42.1464 -93.3228 70° East 196 226 11,000  Level Minneapolis Center
Sun 03:41:01 PM 42.1639 -93.2539 71° East 197 227 11,000  Level Minneapolis Center
Sun 03:42:03 PM 42.1869 -93.1719 69° East 195 224 11,000  Level Minneapolis Center
Sun 03:43:05 PM 42.2047 -93.1044 70° East 195 224 11,000  Level Minneapolis Center
Sun 03:43:40 PM 42.2147 -93.0608 73° East 195 224 11,000  Level Chicago Center
Sun 03:44:42 PM 42.2336 -92.9936 69° East 195 224 11,000  Level Chicago Center
Sun 03:45:44 PM 42.2522 -92.9242 70° East 197 227 11,000  Level Chicago Center
Sun 03:46:46 PM 42.2692 -92.8558 71° East 194 223 11,000 48 Level Chicago Center
Sun 03:47:48 PM 42.2917 -92.7739 70° East 196 226 11,100 48 Climbing Chicago Center
Sun 03:48:50 PM 42.3097 -92.7042 71° East 197 227 11,100  Level Chicago Center
Sun 03:49:53 PM 42.3275 -92.6367 70° East 195 224 11,100  Level Chicago Center
Sun 03:50:55 PM 42.3458 -92.5664 71° East 198 228 11,100  Level Chicago Center
Sun 03:51:57 PM 42.3636 -92.4975 71° East 196 226 11,100  Level Chicago Center
Sun 03:52:59 PM 42.3858 -92.4142 70° East 198 228 11,100  Level Chicago Center
Sun 03:54:01 PM 42.4039 -92.3461 70° East 196 226 11,100  Level Chicago Center
Sun 03:55:03 PM 42.4211 -92.2792 71° East 193 222 11,100  Level Chicago Center
Sun 03:56:05 PM 42.4392 -92.2114 70° East 192 221 11,100  Level Chicago Center
Sun 03:57:07 PM 42.4603 -92.1300 71° East 193 222 11,100 -48 Level Chicago Center
Sun 03:58:09 PM 42.4781 -92.0614 71° East 194 223 11,000 -48 Descending Chicago Center
Sun 03:59:11 PM 42.4961 -91.9919 71° East 195 224 11,000  Level Chicago Center
Sun 04:00:14 PM 42.5142 -91.9233 70° East 196 226 11,000  Level Chicago Center
Sun 04:01:16 PM 42.5319 -91.8550 71° East 195 224 11,000  Level Chicago Center
Sun 04:02:18 PM 42.5525 -91.7742 71° East 194 223 11,000 -48 Level Chicago Center
Sun 04:03:20 PM 42.5697 -91.7069 71° East 192 221 10,900 -48 Descending Chicago Center
Sun 04:04:22 PM 42.5869 -91.6403 71° East 191 220 10,900  Level Chicago Center
Sun 04:05:24 PM 42.6044 -91.5731 71° East 191 220 10,900  Level Chicago Center
Sun 04:06:26 PM 42.6233 -91.4928 72° East 191 220 10,900  Level Chicago Center
Sun 04:07:28 PM 42.6411 -91.4264 70° East 189 217 10,900  Level Chicago Center
Sun 04:08:30 PM 42.6575 -91.3586 72° East 191 220 10,900  Level Chicago Center
Sun 04:09:32 PM 42.6744 -91.2906 71° East 192 221 10,900  Level Chicago Center
Sun 04:10:35 PM 42.6944 -91.2106 71° East 190 219 10,900  Level Chicago Center
Sun 04:11:37 PM 42.7108 -91.1428 72° East 190 219 10,900  Level Chicago Center
Sun 04:12:39 PM 42.7272 -91.0750 72° East 191 220 10,900  Level Chicago Center
Sun 04:13:41 PM 42.7444 -91.0075 71° East 192 221 10,900  Level Chicago Center
Sun 04:14:43 PM 42.7606 -90.9389 72° East 192 221 10,900  Level Chicago Center
Sun 04:15:45 PM 42.7811 -90.8581 71° East 192 221 10,900  Level Chicago Center
Sun 04:16:47 PM 42.7978 -90.7892 72° East 193 222 10,900  Level Chicago Center
Sun 04:17:49 PM 42.8144 -90.7222 71° East 190 219 10,900 -145 Level Chicago Center
Sun 04:18:51 PM 42.8308 -90.6525 72° East 194 223 10,600 -387 Descending Chicago Center
Sun 04:19:53 PM 42.8519 -90.5642 72° East 203 234 10,100 -480 Descending Chicago Center
Sun 04:20:56 PM 42.8697 -90.4919 71° East 204 235 9,600 -480 Descending Chicago Center
Sun 04:21:58 PM 42.8869 -90.4189 72° East 204 235 9,100 -484 Descending Chicago Center
Sun 04:23:00 PM 42.9044 -90.3472 72° East 202 232 8,600 -484 Descending Chicago Center
Sun 04:24:02 PM 42.9214 -90.2761 72° East 201 231 8,100 -532 Descending Chicago Center
Sun 04:25:04 PM 42.9419 -90.1908 72° East 199 229 7,500 -532 Descending Chicago Center
Sun 04:26:06 PM 42.9578 -90.1225 72° East 193 222 7,000 -484 Descending Chicago Center
Sun 04:27:08 PM 42.9742 -90.0542 72° East 192 221 6,500 -484 Descending Chicago Center
Sun 04:28:10 PM 42.9908 -89.9861 71° East 191 220 6,000 -484 Descending Chicago Center
Sun 04:29:12 PM 43.0108 -89.9078 71° East 191 220 5,500 -484 Descending Chicago Center
Sun 04:30:14 PM 43.0403 -89.8494 55° Northeast 186 214 5,000 -242 Descending Chicago Center
Sun 04:31:16 PM 43.0678 -89.7928 56° Northeast 181 208 5,000  Level Chicago Center
Sun 04:32:18 PM 43.0922 -89.7378 59° Northeast 173 199 5,000  Level Chicago Center
Sun 04:33:20 PM 43.1178 -89.6828 58° Northeast 171 197 5,000 -192 Level Chicago Center
Sun 04:34:23 PM 43.1483 -89.6161 58° Northeast 172 198 4,600 -480 Descending Chicago Center
Sun 04:35:25 PM 43.1772 -89.5617 54° Northeast 174 200 4,000 -387 Descending Chicago Center
Sun 04:36:27 PM 43.2189 -89.5494 12° North 161 185 3,800 -339 Descending Chicago Center
Sun 04:37:29 PM 43.2467 -89.5214 36° Northeast 149 171 3,300 -387 Descending Chicago Center
Sun 04:38:31 PM 43.2217 -89.4789 129° Southeast 151 174 3,000 -194 Descending Chicago Center
Sun 04:39:33 PM 43.2133 -89.4292 103° East 126 145 2,900 -339 Descending Chicago Center
Sun 04:40:35 PM 43.1933 -89.4008 134° Southeast 111 128 2,300 -581 Descending Chicago Center
Sun 04:41:37 PM 43.1733 -89.3756 137° Southeast 104 120 1,700 -532 Descending Chicago Center
Sun 04:42:39 PM 43.1517 -89.3461 135° Southeast 102 117 1,200 -484 Descending Chicago Center
Sun 04:44:00 PM 43.1333 -89.3333 131° Southeast  Level FlightAware Approximate

Login

Don't have an account? Register now (free) for customized features, flight alerts, and more!